createdAt,value
2023-03-18T00:01:01.722Z,13.50
2023-03-18T00:04:04.489Z,13.60
2023-03-18T00:07:12.585Z,13.20
2023-03-18T00:10:18.970Z,12.70
2023-03-18T00:13:20.801Z,13.80
2023-03-18T00:16:23.591Z,14.00
2023-03-18T00:19:28.263Z,12.70
2023-03-18T00:22:36.067Z,12.60
2023-03-18T00:25:39.011Z,13.30
2023-03-18T00:28:42.814Z,12.90
2023-03-18T00:31:48.080Z,13.30
2023-03-18T00:34:50.875Z,12.90
2023-03-18T00:37:55.509Z,12.20
2023-03-18T00:41:18.204Z,12.50
2023-03-18T00:44:26.456Z,12.50
2023-03-18T00:47:41.654Z,12.30
2023-03-18T00:50:45.144Z,12.20
2023-03-18T00:53:52.854Z,12.30
2023-03-18T00:56:55.722Z,12.10
2023-03-18T01:00:02.296Z,13.10
2023-03-18T01:03:04.883Z,12.70
2023-03-18T01:06:07.877Z,12.10
2023-03-18T01:09:11.206Z,12.10
2023-03-18T01:12:14.821Z,12.00
2023-03-18T01:15:19.255Z,11.90
2023-03-18T01:18:21.793Z,11.80
2023-03-18T01:21:23.620Z,11.60
2023-03-18T01:24:29.595Z,11.70
2023-03-18T01:27:31.699Z,11.70
2023-03-18T01:30:35.499Z,11.70
2023-03-18T01:33:40.229Z,11.80
2023-03-18T01:36:42.662Z,11.80
2023-03-18T01:39:45.389Z,11.80
2023-03-18T01:42:59.249Z,11.70
2023-03-18T01:46:28.886Z,11.60
2023-03-18T01:49:38.695Z,11.50
2023-03-18T01:52:41.624Z,11.40
2023-03-18T01:55:47.071Z,11.30
2023-03-18T01:58:52.684Z,11.30
2023-03-18T02:02:06.721Z,11.10
2023-03-18T02:05:13.679Z,10.90
2023-03-18T02:08:18.722Z,10.90
2023-03-18T02:11:20.751Z,10.80
2023-03-18T02:19:34.876Z,10.50
2023-03-18T02:22:41.628Z,10.30
2023-03-18T02:26:03.579Z,10.30
2023-03-18T02:29:08.877Z,10.30
2023-03-18T02:32:21.398Z,10.30
2023-03-18T02:35:24.279Z,10.40
2023-03-18T02:38:27.242Z,10.50
2023-03-18T02:41:34.052Z,10.50
2023-03-18T02:44:40.372Z,10.50
2023-03-18T02:48:11.370Z,10.60
2023-03-18T02:51:14.820Z,10.60
2023-03-18T02:54:20.495Z,10.60
2023-03-18T02:57:22.222Z,10.70
2023-03-18T03:00:24.281Z,10.70
2023-03-18T03:03:27.758Z,10.80
2023-03-18T03:06:29.729Z,11.00
2023-03-18T03:09:32.011Z,11.10
2023-03-18T03:12:34.524Z,11.20
2023-03-18T03:15:38.413Z,11.20
2023-03-18T03:18:40.611Z,11.10
2023-03-18T03:21:42.343Z,11.00
2023-03-18T03:24:45.079Z,11.00
2023-03-18T03:27:49.777Z,11.00
2023-03-18T03:30:53.645Z,10.90
2023-03-18T03:33:55.448Z,10.90
2023-03-18T03:36:57.218Z,11.00
2023-03-18T03:40:00.851Z,11.00
2023-03-18T03:43:02.736Z,10.90
2023-03-18T03:46:06.401Z,11.00
2023-03-18T03:49:08.515Z,11.10
2023-03-18T03:52:10.418Z,10.90
2023-03-18T03:55:19.393Z,10.70
2023-03-18T03:58:22.548Z,10.70
2023-03-18T04:01:24.389Z,10.80
2023-03-18T04:04:26.232Z,10.60
2023-03-18T04:07:28.877Z,10.50
2023-03-18T04:10:31.075Z,10.40
2023-03-18T04:13:34.100Z,10.30
2023-03-18T04:16:36.127Z,10.40
2023-03-18T04:19:39.345Z,10.40
2023-03-18T04:22:41.915Z,10.50
2023-03-18T04:25:46.027Z,10.50
2023-03-18T04:28:49.364Z,10.50
2023-03-18T04:31:51.867Z,10.50
2023-03-18T04:34:54.830Z,10.50
2023-03-18T04:37:57.041Z,10.50
2023-03-18T04:40:59.691Z,10.60
2023-03-18T04:44:01.418Z,10.60
2023-03-18T04:47:13.680Z,10.60
2023-03-18T04:50:16.450Z,10.90
2023-03-18T04:53:18.227Z,11.00
2023-03-18T04:56:20.379Z,10.90
2023-03-18T04:59:27.099Z,11.00
2023-03-18T05:02:29.918Z,11.00
2023-03-18T05:05:32.416Z,10.90
2023-03-18T05:08:34.668Z,11.00
2023-03-18T05:11:36.574Z,11.10
2023-03-18T05:15:11.605Z,11.10
2023-03-18T05:18:17.964Z,11.10
2023-03-18T05:21:23.259Z,11.10
2023-03-18T05:24:25.896Z,11.20
2023-03-18T05:27:29.771Z,11.20
2023-03-18T05:30:44.412Z,11.20
2023-03-18T05:33:49.717Z,11.30
2023-03-18T05:36:52.630Z,11.20
2023-03-18T05:39:55.954Z,11.30
2023-03-18T05:42:59.117Z,11.30
2023-03-18T05:46:11.689Z,11.30
2023-03-18T05:49:27.675Z,11.30
2023-03-18T05:52:54.351Z,11.40
2023-03-18T05:55:58.299Z,11.30
2023-03-18T05:59:01.203Z,11.30
2023-03-18T06:02:18.369Z,11.30
2023-03-18T06:05:21.439Z,11.30
2023-03-18T06:08:23.620Z,11.30
2023-03-18T06:11:25.360Z,11.50
2023-03-18T06:14:29.701Z,11.40
2023-03-18T06:17:36.590Z,11.40
2023-03-18T06:20:38.353Z,11.50
2023-03-18T06:23:40.154Z,11.30
2023-03-18T06:26:42.183Z,11.30
2023-03-18T06:29:44.217Z,11.30
2023-03-18T06:32:49.888Z,11.30
2023-03-18T06:35:54.798Z,11.30
2023-03-18T06:38:56.788Z,11.30
2023-03-18T06:42:01.006Z,11.40
2023-03-18T06:45:07.948Z,11.40
2023-03-18T06:48:32.914Z,11.50
2023-03-18T06:51:34.746Z,11.60
2023-03-18T06:54:37.403Z,11.70
2023-03-18T06:57:40.306Z,11.70
2023-03-18T07:00:45.285Z,11.70
2023-03-18T07:03:52.822Z,11.80
2023-03-18T07:06:55.041Z,11.80
2023-03-18T07:09:56.863Z,11.80
2023-03-18T07:13:00.153Z,11.80
2023-03-18T07:16:02.157Z,11.90
2023-03-18T07:19:04.160Z,11.80
2023-03-18T07:22:06.978Z,11.90
2023-03-18T07:25:10.105Z,11.90
2023-03-18T07:28:12.414Z,12.00
2023-03-18T07:31:14.799Z,12.00
2023-03-18T07:34:18.664Z,12.10
2023-03-18T07:37:20.604Z,12.30
2023-03-18T07:40:23.498Z,12.40
2023-03-18T07:43:25.248Z,12.50
2023-03-18T07:46:27.608Z,12.50
2023-03-18T07:49:30.063Z,12.60
2023-03-18T07:52:31.979Z,12.70
2023-03-18T07:55:34.222Z,12.70
2023-03-18T07:58:37.342Z,12.70
2023-03-18T08:01:39.792Z,12.70
2023-03-18T08:04:44.035Z,12.70
2023-03-18T08:07:45.838Z,12.80
2023-03-18T08:10:47.593Z,13.00
2023-03-18T08:13:49.309Z,13.00
2023-03-18T08:16:51.069Z,13.00
2023-03-18T08:19:52.771Z,12.90
2023-03-18T08:22:55.867Z,12.90
2023-03-18T08:25:57.660Z,12.90
2023-03-18T08:28:59.496Z,12.80
2023-03-18T08:32:02.096Z,12.80
2023-03-18T08:35:05.142Z,12.80
2023-03-18T08:38:07.087Z,12.90
2023-03-18T08:41:10.040Z,13.10
2023-03-18T08:44:12.018Z,13.30
2023-03-18T08:47:13.765Z,13.30
2023-03-18T08:50:16.036Z,13.20
2023-03-18T08:53:18.469Z,13.20
2023-03-18T08:56:20.193Z,13.20
2023-03-18T08:59:22.186Z,13.20
2023-03-18T09:02:23.961Z,13.20
2023-03-18T09:05:25.757Z,13.10
2023-03-18T09:08:29.315Z,13.10
2023-03-18T09:11:31.061Z,13.00
2023-03-18T09:14:33.267Z,13.00
2023-03-18T09:17:49.081Z,13.10
2023-03-18T09:20:56.513Z,13.10
2023-03-18T09:23:59.006Z,13.10
2023-03-18T09:27:00.745Z,13.30
2023-03-18T09:30:03.811Z,13.60
2023-03-18T09:33:06.867Z,14.10
2023-03-18T09:36:09.866Z,14.40
2023-03-18T09:39:11.588Z,14.80
2023-03-18T09:42:41.506Z,15.10
2023-03-18T09:45:57.260Z,15.40
2023-03-18T09:49:24.361Z,15.30
2023-03-18T09:52:31.850Z,15.50
2023-03-18T09:55:42.072Z,15.70
2023-03-18T09:58:56.628Z,15.50
2023-03-18T10:01:59.940Z,16.00
2023-03-18T10:05:07.477Z,15.90
2023-03-18T10:08:23.119Z,16.40
2023-03-18T10:11:52.676Z,17.00
2023-03-18T10:15:22.526Z,17.40
2023-03-18T10:18:42.014Z,17.00
2023-03-18T10:21:52.526Z,16.40
2023-03-18T10:25:21.447Z,16.20
2023-03-18T10:28:54.463Z,16.00
2023-03-18T10:32:24.206Z,15.80
2023-03-18T10:35:48.994Z,15.60
2023-03-18T10:38:53.469Z,15.60
2023-03-18T10:41:58.681Z,16.40
2023-03-18T10:45:25.086Z,16.80
2023-03-18T10:48:51.261Z,17.50
2023-03-18T10:52:25.250Z,17.30
2023-03-18T10:55:35.344Z,17.90
2023-03-18T10:58:41.777Z,18.20
2023-03-18T11:01:47.341Z,18.30
2023-03-18T11:05:20.369Z,18.10
2023-03-18T11:08:34.611Z,18.70
2023-03-18T11:11:45.881Z,18.80
2023-03-18T11:14:49.531Z,18.30
2023-03-18T11:17:51.866Z,18.70
2023-03-18T11:21:04.572Z,18.70
2023-03-18T11:24:35.911Z,18.90
2023-03-18T11:27:50.365Z,18.40
2023-03-18T11:30:56.381Z,18.30
2023-03-18T11:33:59.208Z,18.20
2023-03-18T11:37:08.253Z,18.30
2023-03-18T11:40:29.689Z,18.40
2023-03-18T11:43:31.473Z,18.60
2023-03-18T11:46:36.173Z,18.60
2023-03-18T11:49:38.537Z,18.60
2023-03-18T11:52:58.414Z,18.50
2023-03-18T11:56:32.392Z,18.10
2023-03-18T11:59:58.991Z,18.20
2023-03-18T12:03:38.888Z,18.60
2023-03-18T12:06:53.750Z,19.00
2023-03-18T12:10:20.479Z,18.90
2023-03-18T12:13:37.635Z,18.80
2023-03-18T12:16:48.720Z,18.80
2023-03-18T12:19:50.624Z,18.70
2023-03-18T12:23:13.854Z,18.90
2023-03-18T12:26:30.039Z,18.90
2023-03-18T12:30:06.809Z,19.20
2023-03-18T12:33:38.053Z,19.10
2023-03-18T12:36:57.771Z,18.60
2023-03-18T12:39:59.459Z,19.00
2023-03-18T12:43:16.109Z,20.10
2023-03-18T12:46:54.820Z,19.70
2023-03-18T12:50:04.046Z,18.70
2023-03-18T12:53:16.740Z,19.00
2023-03-18T12:56:25.833Z,18.50
2023-03-18T12:59:53.285Z,18.40
2023-03-18T13:03:16.737Z,18.10
2023-03-18T13:06:33.600Z,18.00
2023-03-18T13:09:48.547Z,18.10
2023-03-18T13:12:55.506Z,18.40
2023-03-18T13:15:57.904Z,19.20
2023-03-18T13:18:59.923Z,18.80
2023-03-18T13:22:35.902Z,18.60
2023-03-18T13:25:51.092Z,18.50
2023-03-18T13:29:00.062Z,18.50
2023-03-18T13:32:26.373Z,18.30
2023-03-18T13:35:41.047Z,18.30
2023-03-18T13:38:57.803Z,18.20
2023-03-18T13:42:17.921Z,18.30
2023-03-18T13:45:44.403Z,18.20
2023-03-18T13:48:46.556Z,17.60
2023-03-18T13:51:53.072Z,17.90
2023-03-18T13:55:01.938Z,18.00
2023-03-18T13:58:22.828Z,18.00
2023-03-18T14:01:24.666Z,17.90
2023-03-18T14:04:45.892Z,17.80
2023-03-18T14:07:49.525Z,17.40
2023-03-18T14:11:11.171Z,17.50
2023-03-18T14:14:54.373Z,17.70
2023-03-18T14:17:58.611Z,17.50
2023-03-18T14:21:02.612Z,17.50
2023-03-18T14:24:34.267Z,17.60
2023-03-18T14:27:57.453Z,17.40
2023-03-18T14:31:25.228Z,17.50
2023-03-18T14:34:28.162Z,17.50
2023-03-18T14:37:32.499Z,17.50
2023-03-18T14:40:41.334Z,17.50
2023-03-18T14:44:09.028Z,17.40
2023-03-18T14:47:39.114Z,17.30
2023-03-18T14:50:45.902Z,17.30
2023-03-18T14:53:55.592Z,17.10
2023-03-18T14:56:57.984Z,17.10
2023-03-18T15:00:00.247Z,17.00
2023-03-18T15:03:07.020Z,16.80
2023-03-18T15:06:21.714Z,16.80
2023-03-18T15:09:27.036Z,16.70
2023-03-18T15:12:29.331Z,16.60
2023-03-18T15:15:32.095Z,16.20
2023-03-18T15:18:37.284Z,15.20
2023-03-18T15:21:39.378Z,14.40
2023-03-18T15:24:41.130Z,14.00
2023-03-18T15:27:42.878Z,13.60
2023-03-18T15:30:59.784Z,13.50
2023-03-18T15:34:19.655Z,14.00
2023-03-18T15:37:41.050Z,16.00
2023-03-18T15:40:52.412Z,17.40
2023-03-18T15:43:54.389Z,16.70
2023-03-18T15:47:03.579Z,15.50
2023-03-18T15:50:37.675Z,15.10
2023-03-18T15:53:44.842Z,14.50
2023-03-18T15:56:49.399Z,14.40
2023-03-18T15:59:51.108Z,14.30
2023-03-18T16:02:53.640Z,14.00
2023-03-18T16:05:55.570Z,13.80
2023-03-18T16:08:57.304Z,13.80
2023-03-18T16:12:03.429Z,13.70
2023-03-18T16:15:07.566Z,13.70
2023-03-18T16:18:10.235Z,13.70
2023-03-18T16:21:13.822Z,13.30
2023-03-18T16:24:16.908Z,13.40
2023-03-18T16:27:29.238Z,13.40
2023-03-18T16:30:33.420Z,13.40
2023-03-18T16:33:35.631Z,13.50
2023-03-18T16:36:38.294Z,13.60
2023-03-18T16:39:40.160Z,13.40
2023-03-18T16:42:42.244Z,13.40
2023-03-18T16:45:44.430Z,13.40
2023-03-18T16:48:46.474Z,13.30
2023-03-18T16:51:49.597Z,13.20
2023-03-18T16:54:51.302Z,13.30
2023-03-18T16:57:56.612Z,13.30
2023-03-18T17:00:59.475Z,13.40
2023-03-18T17:04:01.325Z,13.50
2023-03-18T17:07:04.657Z,13.40
2023-03-18T17:10:08.806Z,13.30
2023-03-18T17:13:18.999Z,13.10
2023-03-18T17:16:21.051Z,13.00
2023-03-18T17:19:25.425Z,13.00
2023-03-18T17:22:30.604Z,12.80
2023-03-18T17:25:32.796Z,12.60
2023-03-18T17:28:39.063Z,12.50
2023-03-18T17:31:40.811Z,12.50
2023-03-18T17:34:45.399Z,12.50
2023-03-18T17:37:48.569Z,12.40
2023-03-18T17:40:50.909Z,12.30
2023-03-18T17:43:52.704Z,12.20
2023-03-18T17:46:54.828Z,12.20
2023-03-18T17:49:56.531Z,12.10
2023-03-18T17:52:58.302Z,12.00
2023-03-18T17:56:02.263Z,11.90
2023-03-18T17:59:12.704Z,11.90
2023-03-18T18:02:18.087Z,11.80
2023-03-18T18:05:21.983Z,11.90
2023-03-18T18:08:25.602Z,12.00
2023-03-18T18:11:32.480Z,12.00
2023-03-18T18:14:34.245Z,12.00
2023-03-18T18:17:36.000Z,11.90
2023-03-18T18:20:38.117Z,11.80
2023-03-18T18:23:40.171Z,11.80
2023-03-18T18:26:41.832Z,11.80
2023-03-18T18:29:45.596Z,11.80
2023-03-18T18:32:47.704Z,11.90
2023-03-18T18:35:49.464Z,11.90
2023-03-18T18:38:52.695Z,11.80
2023-03-18T18:41:54.780Z,12.00
2023-03-18T18:44:56.477Z,11.90
2023-03-18T18:47:58.310Z,11.90
2023-03-18T18:51:01.916Z,11.60
2023-03-18T18:54:03.807Z,11.70
2023-03-18T18:57:05.658Z,11.70
2023-03-18T19:00:19.305Z,11.70
2023-03-18T19:03:25.717Z,11.60
2023-03-18T19:06:30.878Z,11.40
2023-03-18T19:09:32.610Z,11.30
2023-03-18T19:12:34.319Z,11.30
2023-03-18T19:15:36.596Z,11.30
2023-03-18T19:18:41.028Z,11.30
2023-03-18T19:21:43.674Z,11.20
2023-03-18T19:24:49.370Z,11.10
2023-03-18T19:27:52.554Z,10.90
2023-03-18T19:30:54.463Z,10.80
2023-03-18T19:33:58.109Z,10.80
2023-03-18T19:37:02.495Z,10.70
2023-03-18T19:40:25.646Z,10.80
2023-03-18T19:43:28.615Z,10.80
2023-03-18T19:46:39.051Z,10.50
2023-03-18T19:49:41.361Z,10.60
2023-03-18T19:52:43.440Z,10.30
2023-03-18T19:55:47.422Z,10.50
2023-03-18T19:58:49.291Z,10.30
2023-03-18T20:01:51.477Z,10.50
2023-03-18T20:04:55.876Z,10.40
2023-03-18T20:07:57.656Z,10.30
2023-03-18T20:10:59.403Z,10.30
2023-03-18T20:14:01.422Z,10.10
2023-03-18T20:17:26.676Z,10.20
2023-03-18T20:20:32.546Z,10.30
2023-03-18T20:23:34.583Z,10.20
2023-03-18T20:26:36.852Z,10.30
2023-03-18T20:29:38.578Z,11.10
2023-03-18T20:32:40.366Z,10.10
2023-03-18T20:35:45.486Z,9.90
2023-03-18T20:38:48.941Z,9.90
2023-03-18T20:41:50.861Z,9.80
2023-03-18T20:44:52.733Z,9.80
2023-03-18T20:47:54.486Z,9.70
2023-03-18T20:50:56.308Z,9.80
2023-03-18T20:53:58.112Z,9.60
2023-03-18T20:56:59.856Z,9.70
2023-03-18T21:00:01.674Z,9.60
2023-03-18T21:03:03.616Z,9.60
2023-03-18T21:06:06.454Z,9.60
2023-03-18T21:09:13.253Z,9.60
2023-03-18T21:12:17.625Z,9.30
2023-03-18T21:15:25.671Z,9.40
2023-03-18T21:18:27.671Z,9.40
2023-03-18T21:21:36.495Z,9.30
2023-03-18T21:24:39.022Z,9.20
2023-03-18T21:27:41.035Z,9.10
2023-03-18T21:30:46.457Z,9.20
2023-03-18T21:33:49.145Z,9.10
2023-03-18T21:36:51.217Z,9.10
2023-03-18T21:39:53.545Z,9.00
2023-03-18T21:42:55.648Z,8.90
2023-03-18T21:45:57.420Z,8.90
2023-03-18T21:48:59.238Z,8.80
2023-03-18T21:52:01.356Z,8.90
2023-03-18T21:55:06.090Z,8.90
2023-03-18T21:58:17.190Z,8.80
2023-03-18T22:01:21.364Z,8.80
2023-03-18T22:04:23.231Z,8.80
2023-03-18T22:07:26.966Z,8.70
2023-03-18T22:10:28.736Z,8.60
2023-03-18T22:13:30.461Z,8.50
2023-03-18T22:16:32.211Z,8.50
2023-03-18T22:19:34.013Z,8.60
2023-03-18T22:22:39.170Z,8.60
2023-03-18T22:25:41.657Z,8.50
2023-03-18T22:28:44.547Z,8.40
2023-03-18T22:31:46.413Z,8.40
2023-03-18T22:34:48.572Z,8.50
2023-03-18T22:37:51.028Z,8.50
2023-03-18T22:40:55.835Z,8.50
2023-03-18T22:44:00.011Z,8.50
2023-03-18T22:47:02.509Z,8.30
2023-03-18T22:50:04.477Z,8.20
2023-03-18T22:53:08.897Z,8.20
2023-03-18T22:56:13.286Z,8.30
2023-03-18T22:59:15.011Z,8.30
2023-03-18T23:02:20.213Z,8.20
2023-03-18T23:05:23.505Z,8.20
2023-03-18T23:08:25.626Z,8.10
2023-03-18T23:11:27.838Z,8.10
2023-03-18T23:14:30.076Z,8.20
2023-03-18T23:17:32.185Z,8.10
2023-03-18T23:20:35.428Z,8.00
2023-03-18T23:23:37.493Z,7.90
2023-03-18T23:26:39.235Z,8.20
2023-03-18T23:29:40.996Z,8.20
2023-03-18T23:32:42.883Z,8.20
2023-03-18T23:35:45.603Z,8.30
2023-03-18T23:38:47.414Z,8.30
2023-03-18T23:41:49.211Z,8.30
2023-03-18T23:44:51.203Z,8.30
2023-03-18T23:47:53.459Z,8.30
2023-03-18T23:50:55.257Z,8.40
2023-03-18T23:53:56.988Z,8.40
2023-03-18T23:56:58.697Z,8.40
